sensor_id;sensor_type;location;lat;lon;timestamp;P1;durP1;ratioP1;P2;durP2;ratioP2
75892;SDS011;64572;50.950;3.676;2023-01-09T00:01:24;10.60;;;3.28;;
75892;SDS011;64572;50.950;3.676;2023-01-09T00:03:52;12.98;;;2.78;;
75892;SDS011;64572;50.950;3.676;2023-01-09T00:06:18;5.75;;;1.92;;
75892;SDS011;64572;50.950;3.676;2023-01-09T00:08:44;10.70;;;2.60;;
75892;SDS011;64572;50.950;3.676;2023-01-09T00:11:10;12.02;;;2.25;;
75892;SDS011;64572;50.950;3.676;2023-01-09T00:13:36;9.32;;;2.40;;
75892;SDS011;64572;50.950;3.676;2023-01-09T00:16:05;9.90;;;2.38;;
75892;SDS011;64572;50.950;3.676;2023-01-09T00:18:32;10.73;;;3.03;;
75892;SDS011;64572;50.950;3.676;2023-01-09T00:20:59;6.43;;;2.10;;
75892;SDS011;64572;50.950;3.676;2023-01-09T00:23:25;10.55;;;2.53;;
75892;SDS011;64572;50.950;3.676;2023-01-09T00:26:00;8.35;;;2.40;;
75892;SDS011;64572;50.950;3.676;2023-01-09T00:28:31;8.82;;;2.30;;
75892;SDS011;64572;50.950;3.676;2023-01-09T00:30:58;13.35;;;2.17;;
75892;SDS011;64572;50.950;3.676;2023-01-09T00:33:26;9.75;;;2.30;;
75892;SDS011;64572;50.950;3.676;2023-01-09T00:35:54;7.40;;;2.03;;
75892;SDS011;64572;50.950;3.676;2023-01-09T00:38:20;6.85;;;2.28;;
75892;SDS011;64572;50.950;3.676;2023-01-09T00:40:45;10.52;;;2.35;;
75892;SDS011;64572;50.950;3.676;2023-01-09T00:43:11;9.82;;;2.60;;
75892;SDS011;64572;50.950;3.676;2023-01-09T00:45:37;12.48;;;2.72;;
75892;SDS011;64572;50.950;3.676;2023-01-09T00:48:06;11.20;;;2.40;;
75892;SDS011;64572;50.950;3.676;2023-01-09T00:50:35;10.65;;;2.50;;
75892;SDS011;64572;50.950;3.676;2023-01-09T00:53:35;8.32;;;2.00;;
75892;SDS011;64572;50.950;3.676;2023-01-09T00:55:56;10.95;;;2.20;;
75892;SDS011;64572;50.950;3.676;2023-01-09T00:58:25;5.90;;;2.00;;
75892;SDS011;64572;50.950;3.676;2023-01-09T01:00:50;8.80;;;2.20;;
75892;SDS011;64572;50.950;3.676;2023-01-09T01:03:16;9.70;;;2.25;;
75892;SDS011;64572;50.950;3.676;2023-01-09T01:05:42;9.95;;;2.30;;
75892;SDS011;64572;50.950;3.676;2023-01-09T01:08:26;12.77;;;2.60;;
75892;SDS011;64572;50.950;3.676;2023-01-09T01:10:51;10.77;;;2.10;;
75892;SDS011;64572;50.950;3.676;2023-01-09T01:13:17;9.80;;;2.30;;
75892;SDS011;64572;50.950;3.676;2023-01-09T01:15:44;19.48;;;2.50;;
75892;SDS011;64572;50.950;3.676;2023-01-09T01:18:11;15.82;;;3.38;;
75892;SDS011;64572;50.950;3.676;2023-01-09T01:20:41;11.70;;;1.77;;
75892;SDS011;64572;50.950;3.676;2023-01-09T01:23:08;9.73;;;2.28;;
75892;SDS011;64572;50.950;3.676;2023-01-09T01:25:37;5.00;;;1.92;;
75892;SDS011;64572;50.950;3.676;2023-01-09T01:28:04;12.98;;;2.53;;
75892;SDS011;64572;50.950;3.676;2023-01-09T01:30:30;7.47;;;2.03;;
75892;SDS011;64572;50.950;3.676;2023-01-09T01:32:56;10.70;;;1.92;;
75892;SDS011;64572;50.950;3.676;2023-01-09T01:35:22;3.97;;;1.60;;
75892;SDS011;64572;50.950;3.676;2023-01-09T01:37:48;8.80;;;2.00;;
75892;SDS011;64572;50.950;3.676;2023-01-09T01:40:14;10.80;;;1.90;;
75892;SDS011;64572;50.950;3.676;2023-01-09T01:42:44;11.15;;;1.70;;
75892;SDS011;64572;50.950;3.676;2023-01-09T01:45:15;9.30;;;1.80;;
75892;SDS011;64572;50.950;3.676;2023-01-09T01:47:54;7.68;;;1.77;;
75892;SDS011;64572;50.950;3.676;2023-01-09T01:52:51;3.60;;;1.60;;
75892;SDS011;64572;50.950;3.676;2023-01-09T01:55:26;6.72;;;1.92;;
75892;SDS011;64572;50.950;3.676;2023-01-09T01:57:53;7.85;;;1.80;;
75892;SDS011;64572;50.950;3.676;2023-01-09T02:00:24;8.13;;;1.77;;
75892;SDS011;64572;50.950;3.676;2023-01-09T02:02:55;3.97;;;1.40;;
75892;SDS011;64572;50.950;3.676;2023-01-09T02:05:21;7.72;;;1.90;;
75892;SDS011;64572;50.950;3.676;2023-01-09T02:07:47;7.95;;;1.83;;
75892;SDS011;64572;50.950;3.676;2023-01-09T02:10:13;10.07;;;1.75;;
75892;SDS011;64572;50.950;3.676;2023-01-09T02:12:40;8.52;;;1.58;;
75892;SDS011;64572;50.950;3.676;2023-01-09T02:15:07;8.48;;;1.35;;
75892;SDS011;64572;50.950;3.676;2023-01-09T02:20:59;5.50;;;1.50;;
75892;SDS011;64572;50.950;3.676;2023-01-09T02:34:51;13.65;;;1.88;;
75892;SDS011;64572;50.950;3.676;2023-01-09T02:42:36;8.43;;;2.05;;
75892;SDS011;64572;50.950;3.676;2023-01-09T02:45:05;9.85;;;1.95;;
75892;SDS011;64572;50.950;3.676;2023-01-09T02:47:35;9.45;;;1.80;;
75892;SDS011;64572;50.950;3.676;2023-01-09T02:50:03;11.38;;;1.90;;
75892;SDS011;64572;50.950;3.676;2023-01-09T03:03:58;8.82;;;1.63;;
75892;SDS011;64572;50.950;3.676;2023-01-09T03:09:16;13.10;;;1.70;;
75892;SDS011;64572;50.950;3.676;2023-01-09T03:11:51;9.02;;;1.48;;
75892;SDS011;64572;50.950;3.676;2023-01-09T03:14:24;11.63;;;2.28;;
75892;SDS011;64572;50.950;3.676;2023-01-09T03:16:55;8.48;;;1.38;;
75892;SDS011;64572;50.950;3.676;2023-01-09T03:19:24;8.18;;;1.73;;
75892;SDS011;64572;50.950;3.676;2023-01-09T03:21:53;11.07;;;2.05;;
75892;SDS011;64572;50.950;3.676;2023-01-09T03:24:19;11.25;;;2.38;;
75892;SDS011;64572;50.950;3.676;2023-01-09T03:26:45;11.93;;;1.92;;
75892;SDS011;64572;50.950;3.676;2023-01-09T03:29:11;16.35;;;2.40;;
75892;SDS011;64572;50.950;3.676;2023-01-09T03:31:37;12.43;;;1.88;;
75892;SDS011;64572;50.950;3.676;2023-01-09T03:34:03;8.80;;;1.98;;
75892;SDS011;64572;50.950;3.676;2023-01-09T03:36:28;10.85;;;1.65;;
75892;SDS011;64572;50.950;3.676;2023-01-09T03:38:54;11.15;;;1.80;;
75892;SDS011;64572;50.950;3.676;2023-01-09T03:41:19;10.35;;;2.13;;
75892;SDS011;64572;50.950;3.676;2023-01-09T03:43:45;14.52;;;2.50;;
75892;SDS011;64572;50.950;3.676;2023-01-09T03:46:13;13.20;;;2.00;;
75892;SDS011;64572;50.950;3.676;2023-01-09T03:48:39;20.00;;;2.42;;
75892;SDS011;64572;50.950;3.676;2023-01-09T03:51:05;10.52;;;2.33;;
75892;SDS011;64572;50.950;3.676;2023-01-09T03:53:30;7.28;;;1.80;;
75892;SDS011;64572;50.950;3.676;2023-01-09T03:55:56;15.75;;;2.20;;
75892;SDS011;64572;50.950;3.676;2023-01-09T03:58:23;8.45;;;2.20;;
75892;SDS011;64572;50.950;3.676;2023-01-09T04:00:50;8.98;;;2.63;;
75892;SDS011;64572;50.950;3.676;2023-01-09T04:03:17;11.32;;;1.90;;
75892;SDS011;64572;50.950;3.676;2023-01-09T04:05:44;18.30;;;2.50;;
75892;SDS011;64572;50.950;3.676;2023-01-09T04:08:12;15.68;;;2.22;;
75892;SDS011;64572;50.950;3.676;2023-01-09T04:10:38;14.02;;;2.00;;
75892;SDS011;64572;50.950;3.676;2023-01-09T04:13:04;11.68;;;1.90;;
75892;SDS011;64572;50.950;3.676;2023-01-09T04:15:30;15.32;;;2.40;;
75892;SDS011;64572;50.950;3.676;2023-01-09T04:17:56;12.73;;;1.90;;
75892;SDS011;64572;50.950;3.676;2023-01-09T04:20:21;15.60;;;2.28;;
75892;SDS011;64572;50.950;3.676;2023-01-09T04:22:47;14.82;;;2.70;;
75892;SDS011;64572;50.950;3.676;2023-01-09T04:25:13;9.48;;;1.77;;
75892;SDS011;64572;50.950;3.676;2023-01-09T04:27:38;15.43;;;1.92;;
75892;SDS011;64572;50.950;3.676;2023-01-09T04:30:04;9.20;;;1.60;;
75892;SDS011;64572;50.950;3.676;2023-01-09T04:32:30;15.32;;;1.85;;
75892;SDS011;64572;50.950;3.676;2023-01-09T04:34:56;17.52;;;2.88;;
75892;SDS011;64572;50.950;3.676;2023-01-09T04:37:22;15.65;;;2.60;;
75892;SDS011;64572;50.950;3.676;2023-01-09T04:39:48;11.02;;;1.40;;
75892;SDS011;64572;50.950;3.676;2023-01-09T04:42:15;10.55;;;2.00;;
75892;SDS011;64572;50.950;3.676;2023-01-09T04:44:41;9.13;;;1.85;;
75892;SDS011;64572;50.950;3.676;2023-01-09T04:47:07;12.77;;;1.98;;
75892;SDS011;64572;50.950;3.676;2023-01-09T04:49:32;16.85;;;2.22;;
75892;SDS011;64572;50.950;3.676;2023-01-09T04:51:58;9.73;;;1.83;;
75892;SDS011;64572;50.950;3.676;2023-01-09T04:54:24;21.52;;;2.35;;
75892;SDS011;64572;50.950;3.676;2023-01-09T04:56:49;20.85;;;2.17;;
75892;SDS011;64572;50.950;3.676;2023-01-09T04:59:15;11.50;;;1.88;;
75892;SDS011;64572;50.950;3.676;2023-01-09T05:01:41;14.85;;;1.92;;
75892;SDS011;64572;50.950;3.676;2023-01-09T05:04:06;15.70;;;2.00;;
75892;SDS011;64572;50.950;3.676;2023-01-09T05:06:32;6.68;;;1.77;;
75892;SDS011;64572;50.950;3.676;2023-01-09T05:08:59;15.68;;;2.60;;
75892;SDS011;64572;50.950;3.676;2023-01-09T05:11:25;13.88;;;2.45;;
75892;SDS011;64572;50.950;3.676;2023-01-09T05:13:51;12.55;;;2.13;;
75892;SDS011;64572;50.950;3.676;2023-01-09T05:16:17;6.00;;;1.55;;
75892;SDS011;64572;50.950;3.676;2023-01-09T05:18:43;8.25;;;1.92;;
75892;SDS011;64572;50.950;3.676;2023-01-09T05:21:09;20.50;;;2.20;;
75892;SDS011;64572;50.950;3.676;2023-01-09T05:23:35;13.65;;;2.10;;
75892;SDS011;64572;50.950;3.676;2023-01-09T05:26:00;15.93;;;2.50;;
75892;SDS011;64572;50.950;3.676;2023-01-09T05:28:28;12.13;;;2.17;;
75892;SDS011;64572;50.950;3.676;2023-01-09T05:30:54;20.30;;;3.17;;
75892;SDS011;64572;50.950;3.676;2023-01-09T05:33:20;15.90;;;2.10;;
75892;SDS011;64572;50.950;3.676;2023-01-09T05:35:46;10.75;;;1.58;;
75892;SDS011;64572;50.950;3.676;2023-01-09T05:38:12;15.50;;;2.38;;
75892;SDS011;64572;50.950;3.676;2023-01-09T05:40:37;14.98;;;2.30;;
75892;SDS011;64572;50.950;3.676;2023-01-09T05:43:03;13.23;;;2.00;;
75892;SDS011;64572;50.950;3.676;2023-01-09T05:45:29;15.43;;;2.40;;
75892;SDS011;64572;50.950;3.676;2023-01-09T05:47:54;15.20;;;2.42;;
75892;SDS011;64572;50.950;3.676;2023-01-09T05:50:20;21.63;;;2.40;;
75892;SDS011;64572;50.950;3.676;2023-01-09T05:52:46;10.45;;;1.83;;
75892;SDS011;64572;50.950;3.676;2023-01-09T05:55:11;16.52;;;2.35;;
75892;SDS011;64572;50.950;3.676;2023-01-09T05:57:37;12.32;;;2.28;;
75892;SDS011;64572;50.950;3.676;2023-01-09T06:00:03;20.75;;;3.22;;
75892;SDS011;64572;50.950;3.676;2023-01-09T06:02:29;12.70;;;1.92;;
75892;SDS011;64572;50.950;3.676;2023-01-09T06:04:55;13.85;;;1.85;;
75892;SDS011;64572;50.950;3.676;2023-01-09T06:07:21;11.23;;;1.83;;
75892;SDS011;64572;50.950;3.676;2023-01-09T06:09:46;10.70;;;1.98;;
75892;SDS011;64572;50.950;3.676;2023-01-09T06:12:12;4.90;;;1.42;;
75892;SDS011;64572;50.950;3.676;2023-01-09T06:14:37;9.40;;;1.73;;
75892;SDS011;64572;50.950;3.676;2023-01-09T06:17:03;12.35;;;2.10;;
75892;SDS011;64572;50.950;3.676;2023-01-09T06:19:30;18.05;;;2.38;;
75892;SDS011;64572;50.950;3.676;2023-01-09T06:21:55;12.18;;;2.42;;
75892;SDS011;64572;50.950;3.676;2023-01-09T06:24:21;16.83;;;2.63;;
75892;SDS011;64572;50.950;3.676;2023-01-09T06:26:47;13.23;;;2.70;;
75892;SDS011;64572;50.950;3.676;2023-01-09T06:29:13;15.55;;;2.22;;
75892;SDS011;64572;50.950;3.676;2023-01-09T06:31:39;14.52;;;2.30;;
75892;SDS011;64572;50.950;3.676;2023-01-09T06:34:05;13.60;;;2.03;;
75892;SDS011;64572;50.950;3.676;2023-01-09T06:36:30;11.90;;;1.67;;
75892;SDS011;64572;50.950;3.676;2023-01-09T06:38:56;13.73;;;2.08;;
75892;SDS011;64572;50.950;3.676;2023-01-09T06:41:22;8.00;;;1.50;;
75892;SDS011;64572;50.950;3.676;2023-01-09T06:43:47;16.27;;;2.72;;
75892;SDS011;64572;50.950;3.676;2023-01-09T06:46:13;13.30;;;2.08;;
75892;SDS011;64572;50.950;3.676;2023-01-09T06:48:39;12.68;;;1.83;;
75892;SDS011;64572;50.950;3.676;2023-01-09T06:51:04;13.15;;;1.90;;
75892;SDS011;64572;50.950;3.676;2023-01-09T06:53:30;12.98;;;2.20;;
75892;SDS011;64572;50.950;3.676;2023-01-09T06:55:56;9.90;;;1.90;;
75892;SDS011;64572;50.950;3.676;2023-01-09T06:58:21;8.75;;;1.85;;
75892;SDS011;64572;50.950;3.676;2023-01-09T07:00:47;13.60;;;2.28;;
75892;SDS011;64572;50.950;3.676;2023-01-09T07:03:13;9.15;;;1.85;;
75892;SDS011;64572;50.950;3.676;2023-01-09T07:05:43;9.10;;;1.63;;
75892;SDS011;64572;50.950;3.676;2023-01-09T07:08:11;8.45;;;1.95;;
75892;SDS011;64572;50.950;3.676;2023-01-09T07:10:36;9.07;;;1.60;;
75892;SDS011;64572;50.950;3.676;2023-01-09T07:13:02;6.55;;;1.58;;
75892;SDS011;64572;50.950;3.676;2023-01-09T07:15:28;7.53;;;1.50;;
75892;SDS011;64572;50.950;3.676;2023-01-09T07:17:53;10.90;;;2.05;;
75892;SDS011;64572;50.950;3.676;2023-01-09T07:20:19;5.63;;;1.42;;
75892;SDS011;64572;50.950;3.676;2023-01-09T07:22:45;14.50;;;2.00;;
75892;SDS011;64572;50.950;3.676;2023-01-09T07:25:11;14.05;;;1.92;;
75892;SDS011;64572;50.950;3.676;2023-01-09T07:27:37;10.35;;;1.70;;
75892;SDS011;64572;50.950;3.676;2023-01-09T07:30:03;9.82;;;1.70;;
75892;SDS011;64572;50.950;3.676;2023-01-09T07:32:29;11.80;;;1.75;;
75892;SDS011;64572;50.950;3.676;2023-01-09T07:34:55;7.50;;;1.63;;
75892;SDS011;64572;50.950;3.676;2023-01-09T07:37:21;9.82;;;1.67;;
75892;SDS011;64572;50.950;3.676;2023-01-09T07:39:47;9.10;;;1.63;;
75892;SDS011;64572;50.950;3.676;2023-01-09T07:42:12;17.80;;;2.20;;
75892;SDS011;64572;50.950;3.676;2023-01-09T07:44:38;14.48;;;1.90;;
75892;SDS011;64572;50.950;3.676;2023-01-09T07:47:04;7.78;;;1.60;;
75892;SDS011;64572;50.950;3.676;2023-01-09T07:49:30;10.35;;;2.10;;
75892;SDS011;64572;50.950;3.676;2023-01-09T07:51:55;10.25;;;2.20;;
75892;SDS011;64572;50.950;3.676;2023-01-09T07:54:21;16.13;;;1.92;;
75892;SDS011;64572;50.950;3.676;2023-01-09T07:56:47;8.77;;;1.55;;
75892;SDS011;64572;50.950;3.676;2023-01-09T07:59:13;9.73;;;1.60;;
75892;SDS011;64572;50.950;3.676;2023-01-09T08:01:39;9.65;;;1.80;;
75892;SDS011;64572;50.950;3.676;2023-01-09T08:04:04;11.82;;;2.05;;
75892;SDS011;64572;50.950;3.676;2023-01-09T08:06:30;12.00;;;1.88;;
75892;SDS011;64572;50.950;3.676;2023-01-09T08:08:56;10.63;;;1.77;;
75892;SDS011;64572;50.950;3.676;2023-01-09T08:11:23;14.50;;;2.08;;
75892;SDS011;64572;50.950;3.676;2023-01-09T08:13:49;11.23;;;1.88;;
75892;SDS011;64572;50.950;3.676;2023-01-09T08:16:15;12.75;;;1.90;;
75892;SDS011;64572;50.950;3.676;2023-01-09T08:18:41;13.90;;;2.05;;
75892;SDS011;64572;50.950;3.676;2023-01-09T08:21:07;12.80;;;2.17;;
75892;SDS011;64572;50.950;3.676;2023-01-09T08:23:35;8.50;;;1.90;;
75892;SDS011;64572;50.950;3.676;2023-01-09T08:26:01;13.15;;;2.05;;
75892;SDS011;64572;50.950;3.676;2023-01-09T08:28:27;8.55;;;2.05;;
75892;SDS011;64572;50.950;3.676;2023-01-09T08:30:52;11.25;;;2.45;;
75892;SDS011;64572;50.950;3.676;2023-01-09T08:33:18;9.65;;;1.70;;
75892;SDS011;64572;50.950;3.676;2023-01-09T08:35:44;10.13;;;2.00;;
75892;SDS011;64572;50.950;3.676;2023-01-09T08:38:09;11.68;;;2.53;;
75892;SDS011;64572;50.950;3.676;2023-01-09T08:40:35;11.45;;;1.80;;
75892;SDS011;64572;50.950;3.676;2023-01-09T08:43:01;11.27;;;1.88;;
75892;SDS011;64572;50.950;3.676;2023-01-09T08:45:46;12.60;;;2.10;;
75892;SDS011;64572;50.950;3.676;2023-01-09T08:48:30;8.73;;;1.65;;
75892;SDS011;64572;50.950;3.676;2023-01-09T08:50:56;17.08;;;2.20;;
75892;SDS011;64572;50.950;3.676;2023-01-09T08:53:21;10.35;;;2.25;;
75892;SDS011;64572;50.950;3.676;2023-01-09T08:55:47;10.90;;;1.70;;
75892;SDS011;64572;50.950;3.676;2023-01-09T08:58:13;9.95;;;1.65;;
75892;SDS011;64572;50.950;3.676;2023-01-09T09:00:39;5.68;;;1.17;;
75892;SDS011;64572;50.950;3.676;2023-01-09T09:03:04;5.60;;;1.42;;
75892;SDS011;64572;50.950;3.676;2023-01-09T09:05:30;7.32;;;1.40;;
75892;SDS011;64572;50.950;3.676;2023-01-09T09:07:56;4.55;;;1.45;;
75892;SDS011;64572;50.950;3.676;2023-01-09T09:10:23;12.50;;;1.77;;
75892;SDS011;64572;50.950;3.676;2023-01-09T09:12:52;5.63;;;1.10;;
75892;SDS011;64572;50.950;3.676;2023-01-09T09:15:20;5.63;;;1.50;;
75892;SDS011;64572;50.950;3.676;2023-01-09T09:17:58;9.75;;;1.30;;
75892;SDS011;64572;50.950;3.676;2023-01-09T09:20:27;11.98;;;1.98;;
75892;SDS011;64572;50.950;3.676;2023-01-09T09:22:54;6.20;;;1.58;;
75892;SDS011;64572;50.950;3.676;2023-01-09T09:25:20;8.23;;;1.55;;
75892;SDS011;64572;50.950;3.676;2023-01-09T09:27:46;8.82;;;1.70;;
75892;SDS011;64572;50.950;3.676;2023-01-09T09:30:13;13.05;;;1.90;;
75892;SDS011;64572;50.950;3.676;2023-01-09T09:32:40;9.13;;;1.60;;
75892;SDS011;64572;50.950;3.676;2023-01-09T09:35:06;8.60;;;1.77;;
75892;SDS011;64572;50.950;3.676;2023-01-09T09:37:33;8.52;;;1.58;;
75892;SDS011;64572;50.950;3.676;2023-01-09T09:39:59;10.10;;;2.72;;
75892;SDS011;64572;50.950;3.676;2023-01-09T09:43:00;6.97;;;1.52;;
75892;SDS011;64572;50.950;3.676;2023-01-09T09:48:58;9.47;;;1.63;;
75892;SDS011;64572;50.950;3.676;2023-01-09T09:54:20;11.40;;;2.03;;
75892;SDS011;64572;50.950;3.676;2023-01-09T09:56:53;6.85;;;1.83;;
75892;SDS011;64572;50.950;3.676;2023-01-09T09:59:23;9.27;;;1.88;;
75892;SDS011;64572;50.950;3.676;2023-01-09T10:04:20;14.38;;;1.88;;
75892;SDS011;64572;50.950;3.676;2023-01-09T10:06:50;14.75;;;2.22;;
75892;SDS011;64572;50.950;3.676;2023-01-09T10:14:32;10.45;;;1.77;;
75892;SDS011;64572;50.950;3.676;2023-01-09T10:31:21;10.23;;;1.90;;
75892;SDS011;64572;50.950;3.676;2023-01-09T10:38:58;12.02;;;2.65;;
75892;SDS011;64572;50.950;3.676;2023-01-09T10:44:13;16.75;;;2.47;;
75892;SDS011;64572;50.950;3.676;2023-01-09T10:46:52;12.50;;;2.90;;
75892;SDS011;64572;50.950;3.676;2023-01-09T10:49:19;10.85;;;2.10;;
75892;SDS011;64572;50.950;3.676;2023-01-09T10:54:15;12.63;;;2.00;;
75892;SDS011;64572;50.950;3.676;2023-01-09T10:56:56;9.93;;;2.53;;
75892;SDS011;64572;50.950;3.676;2023-01-09T10:59:26;13.82;;;3.00;;
75892;SDS011;64572;50.950;3.676;2023-01-09T11:01:51;9.55;;;1.90;;
75892;SDS011;64572;50.950;3.676;2023-01-09T11:10:03;12.23;;;2.25;;
75892;SDS011;64572;50.950;3.676;2023-01-09T11:12:33;10.07;;;2.13;;
75892;SDS011;64572;50.950;3.676;2023-01-09T11:17:40;15.02;;;3.03;;
75892;SDS011;64572;50.950;3.676;2023-01-09T11:20:14;11.88;;;2.15;;
75892;SDS011;64572;50.950;3.676;2023-01-09T11:22:42;13.63;;;2.47;;
75892;SDS011;64572;50.950;3.676;2023-01-09T11:25:20;13.23;;;2.60;;
75892;SDS011;64572;50.950;3.676;2023-01-09T11:28:23;14.75;;;3.53;;
75892;SDS011;64572;50.950;3.676;2023-01-09T11:30:52;11.48;;;2.33;;
75892;SDS011;64572;50.950;3.676;2023-01-09T11:33:22;12.50;;;2.38;;
75892;SDS011;64572;50.950;3.676;2023-01-09T11:38:24;18.02;;;2.92;;
75892;SDS011;64572;50.950;3.676;2023-01-09T11:40:57;14.48;;;2.53;;
75892;SDS011;64572;50.950;3.676;2023-01-09T11:45:55;9.45;;;2.10;;
75892;SDS011;64572;50.950;3.676;2023-01-09T11:48:33;18.10;;;2.90;;
75892;SDS011;64572;50.950;3.676;2023-01-09T11:51:00;12.57;;;2.70;;
75892;SDS011;64572;50.950;3.676;2023-01-09T11:56:18;9.73;;;2.00;;
75892;SDS011;64572;50.950;3.676;2023-01-09T11:58:44;14.75;;;2.78;;
75892;SDS011;64572;50.950;3.676;2023-01-09T12:09:21;19.23;;;2.80;;
75892;SDS011;64572;50.950;3.676;2023-01-09T12:17:43;16.38;;;2.60;;
75892;SDS011;64572;50.950;3.676;2023-01-09T12:25:56;7.70;;;2.03;;
75892;SDS011;64572;50.950;3.676;2023-01-09T12:33:55;10.75;;;2.63;;
75892;SDS011;64572;50.950;3.676;2023-01-09T12:39:56;14.63;;;2.92;;
75892;SDS011;64572;50.950;3.676;2023-01-09T12:45:11;18.75;;;2.72;;
75892;SDS011;64572;50.950;3.676;2023-01-09T12:52:43;13.07;;;2.70;;
75892;SDS011;64572;50.950;3.676;2023-01-09T12:55:22;9.97;;;2.37;;
75892;SDS011;64572;50.950;3.676;2023-01-09T12:57:52;16.10;;;2.65;;
75892;SDS011;64572;50.950;3.676;2023-01-09T13:00:22;6.00;;;2.15;;
75892;SDS011;64572;50.950;3.676;2023-01-09T13:10:46;18.45;;;2.85;;
75892;SDS011;64572;50.950;3.676;2023-01-09T13:13:26;13.77;;;2.38;;
75892;SDS011;64572;50.950;3.676;2023-01-09T13:15:59;10.98;;;1.73;;
75892;SDS011;64572;50.950;3.676;2023-01-09T13:18:37;14.95;;;2.35;;
75892;SDS011;64572;50.950;3.676;2023-01-09T13:21:07;21.52;;;2.05;;
75892;SDS011;64572;50.950;3.676;2023-01-09T13:23:41;16.92;;;2.83;;
75892;SDS011;64572;50.950;3.676;2023-01-09T13:26:47;10.75;;;1.55;;
75892;SDS011;64572;50.950;3.676;2023-01-09T13:29:18;10.07;;;1.88;;
75892;SDS011;64572;50.950;3.676;2023-01-09T13:34:41;11.68;;;3.03;;
75892;SDS011;64572;50.950;3.676;2023-01-09T13:37:23;4.68;;;1.50;;
75892;SDS011;64572;50.950;3.676;2023-01-09T13:39:56;18.40;;;2.38;;
75892;SDS011;64572;50.950;3.676;2023-01-09T13:42:25;10.57;;;2.38;;
75892;SDS011;64572;50.950;3.676;2023-01-09T13:47:35;12.75;;;2.78;;
75892;SDS011;64572;50.950;3.676;2023-01-09T13:52:42;7.25;;;1.38;;
75892;SDS011;64572;50.950;3.676;2023-01-09T13:58:22;9.65;;;1.63;;
75892;SDS011;64572;50.950;3.676;2023-01-09T14:03:18;6.68;;;1.70;;
75892;SDS011;64572;50.950;3.676;2023-01-09T14:08:17;7.18;;;1.58;;
75892;SDS011;64572;50.950;3.676;2023-01-09T14:10:55;12.48;;;2.30;;
75892;SDS011;64572;50.950;3.676;2023-01-09T14:13:23;11.73;;;1.50;;
75892;SDS011;64572;50.950;3.676;2023-01-09T14:15:49;13.25;;;2.00;;
75892;SDS011;64572;50.950;3.676;2023-01-09T14:18:18;11.68;;;2.67;;
75892;SDS011;64572;50.950;3.676;2023-01-09T14:20:55;15.45;;;2.28;;
75892;SDS011;64572;50.950;3.676;2023-01-09T14:23:35;13.27;;;1.85;;
75892;SDS011;64572;50.950;3.676;2023-01-09T14:26:03;14.80;;;2.42;;
75892;SDS011;64572;50.950;3.676;2023-01-09T14:28:30;15.55;;;2.17;;
75892;SDS011;64572;50.950;3.676;2023-01-09T14:33:27;12.82;;;2.05;;
75892;SDS011;64572;50.950;3.676;2023-01-09T14:41:44;8.23;;;1.88;;
75892;SDS011;64572;50.950;3.676;2023-01-09T14:47:15;13.98;;;1.67;;
75892;SDS011;64572;50.950;3.676;2023-01-09T14:50:02;8.10;;;1.83;;
75892;SDS011;64572;50.950;3.676;2023-01-09T14:52:44;15.82;;;2.70;;
75892;SDS011;64572;50.950;3.676;2023-01-09T14:55:33;9.38;;;2.17;;
75892;SDS011;64572;50.950;3.676;2023-01-09T14:58:09;11.27;;;2.00;;
75892;SDS011;64572;50.950;3.676;2023-01-09T15:03:47;10.18;;;2.15;;
75892;SDS011;64572;50.950;3.676;2023-01-09T15:08:44;11.10;;;3.05;;
75892;SDS011;64572;50.950;3.676;2023-01-09T15:11:13;16.30;;;2.25;;
75892;SDS011;64572;50.950;3.676;2023-01-09T15:13:45;10.05;;;2.05;;
75892;SDS011;64572;50.950;3.676;2023-01-09T15:16:17;14.27;;;2.70;;
75892;SDS011;64572;50.950;3.676;2023-01-09T15:18:45;19.00;;;3.08;;
75892;SDS011;64572;50.950;3.676;2023-01-09T15:21:23;13.80;;;2.80;;
75892;SDS011;64572;50.950;3.676;2023-01-09T15:23:50;14.73;;;2.40;;
75892;SDS011;64572;50.950;3.676;2023-01-09T15:26:27;9.80;;;1.80;;
75892;SDS011;64572;50.950;3.676;2023-01-09T15:29:00;5.63;;;1.27;;
75892;SDS011;64572;50.950;3.676;2023-01-09T15:31:33;9.18;;;1.50;;
75892;SDS011;64572;50.950;3.676;2023-01-09T15:34:02;7.75;;;2.15;;
75892;SDS011;64572;50.950;3.676;2023-01-09T15:36:28;8.68;;;1.95;;
75892;SDS011;64572;50.950;3.676;2023-01-09T15:38:54;9.02;;;1.88;;
75892;SDS011;64572;50.950;3.676;2023-01-09T15:41:24;11.82;;;2.28;;
75892;SDS011;64572;50.950;3.676;2023-01-09T15:44:18;4.40;;;1.40;;
75892;SDS011;64572;50.950;3.676;2023-01-09T15:46:48;3.07;;;1.40;;
75892;SDS011;64572;50.950;3.676;2023-01-09T15:49:14;7.72;;;1.92;;
75892;SDS011;64572;50.950;3.676;2023-01-09T15:51:42;7.82;;;1.75;;
75892;SDS011;64572;50.950;3.676;2023-01-09T15:54:16;10.32;;;1.70;;
75892;SDS011;64572;50.950;3.676;2023-01-09T15:56:49;9.82;;;1.55;;
75892;SDS011;64572;50.950;3.676;2023-01-09T15:59:24;10.27;;;2.42;;
75892;SDS011;64572;50.950;3.676;2023-01-09T16:01:56;15.90;;;2.90;;
75892;SDS011;64572;50.950;3.676;2023-01-09T16:04:47;9.68;;;2.55;;
75892;SDS011;64572;50.950;3.676;2023-01-09T16:07:15;14.38;;;3.03;;
75892;SDS011;64572;50.950;3.676;2023-01-09T16:09:43;12.70;;;3.15;;
75892;SDS011;64572;50.950;3.676;2023-01-09T16:12:18;15.25;;;3.22;;
75892;SDS011;64572;50.950;3.676;2023-01-09T16:15:04;12.75;;;3.88;;
75892;SDS011;64572;50.950;3.676;2023-01-09T16:17:30;15.20;;;5.07;;
75892;SDS011;64572;50.950;3.676;2023-01-09T16:19:56;18.58;;;6.13;;
75892;SDS011;64572;50.950;3.676;2023-01-09T16:22:35;15.25;;;3.97;;
75892;SDS011;64572;50.950;3.676;2023-01-09T16:25:33;22.45;;;5.82;;
75892;SDS011;64572;50.950;3.676;2023-01-09T16:30:50;17.75;;;5.75;;
75892;SDS011;64572;50.950;3.676;2023-01-09T16:33:20;21.95;;;5.65;;
75892;SDS011;64572;50.950;3.676;2023-01-09T16:35:48;15.98;;;4.32;;
75892;SDS011;64572;50.950;3.676;2023-01-09T16:38:14;21.00;;;4.70;;
75892;SDS011;64572;50.950;3.676;2023-01-09T16:43:44;5.40;;;1.73;;
75892;SDS011;64572;50.950;3.676;2023-01-09T16:46:10;14.13;;;2.63;;
75892;SDS011;64572;50.950;3.676;2023-01-09T16:48:37;9.52;;;2.30;;
75892;SDS011;64572;50.950;3.676;2023-01-09T16:51:03;5.63;;;1.80;;
75892;SDS011;64572;50.950;3.676;2023-01-09T16:53:29;10.43;;;1.88;;
75892;SDS011;64572;50.950;3.676;2023-01-09T16:55:58;8.27;;;2.15;;
75892;SDS011;64572;50.950;3.676;2023-01-09T17:00:51;18.23;;;3.58;;
75892;SDS011;64572;50.950;3.676;2023-01-09T17:03:17;13.20;;;2.75;;
75892;SDS011;64572;50.950;3.676;2023-01-09T17:05:44;9.40;;;2.30;;
75892;SDS011;64572;50.950;3.676;2023-01-09T17:08:25;10.55;;;1.85;;
75892;SDS011;64572;50.950;3.676;2023-01-09T17:10:56;11.77;;;1.67;;
75892;SDS011;64572;50.950;3.676;2023-01-09T17:13:22;11.63;;;3.05;;
75892;SDS011;64572;50.950;3.676;2023-01-09T17:15:49;18.02;;;3.50;;
75892;SDS011;64572;50.950;3.676;2023-01-09T17:18:22;10.80;;;2.00;;
75892;SDS011;64572;50.950;3.676;2023-01-09T17:20:50;10.70;;;1.85;;
75892;SDS011;64572;50.950;3.676;2023-01-09T17:23:17;15.60;;;1.90;;
75892;SDS011;64572;50.950;3.676;2023-01-09T17:25:45;7.40;;;1.63;;
75892;SDS011;64572;50.950;3.676;2023-01-09T17:28:30;10.02;;;2.25;;
75892;SDS011;64572;50.950;3.676;2023-01-09T17:30:56;10.73;;;2.10;;
75892;SDS011;64572;50.950;3.676;2023-01-09T17:33:27;11.80;;;3.03;;
75892;SDS011;64572;50.950;3.676;2023-01-09T17:35:54;14.23;;;3.10;;
75892;SDS011;64572;50.950;3.676;2023-01-09T17:38:20;21.25;;;4.30;;
75892;SDS011;64572;50.950;3.676;2023-01-09T17:40:46;22.38;;;6.85;;
75892;SDS011;64572;50.950;3.676;2023-01-09T17:43:11;21.98;;;4.15;;
75892;SDS011;64572;50.950;3.676;2023-01-09T17:45:37;10.45;;;2.95;;